Terminal Aerodrome Forecast
Issued by NWS

Home | Current Version | Previous Version | Text Only | Print | Product List | Glossary On
Versions: 1 2 3 4 5 6 7 8 9 10 11 12 13
000
FTUS44 KMOB 231737
TAFBFM
TAF
KBFM 231737Z 2318/2418 08006KT P6SM VCTS FEW030CB
     FM231900 16005KT P6SM VCTS SCT030CB
      TEMPO 2320/2324 P6SM TSRA BKN025CB
     FM240300 17002KT P6SM SCT250
     FM241500 06006KT P6SM FEW250=

USA.gov is the U.S. government's official web portal to all federal, state and local government web resources and services.